Time;durP1;ratioP1;P1;durP2;ratioP2;P2;SDS_P1;SDS_P2;PMS_P1;PMS_P2;Temp;Humidity;BMP_temperature;BMP_pressure;BME280_temperature;BME280_humidity;BME280_pressure;Samples;Min_cycle;Max_cycle;Signal;HPM_P1;HPM_P2
2022/11/12 00:00:04;;;;;;;30.90;22.63;;;;;;;4.96;100.00;102946.53;5239818;28;20926;-66
2022/11/12 00:02:36;;;;;;;34.17;23.27;;;;;;;4.92;100.00;102943.06;5241801;28;20033;-66
2022/11/12 00:05:07;;;;;;;29.88;21.75;;;;;;;4.92;100.00;102951.00;5239079;28;20052;-65
2022/11/12 00:07:39;;;;;;;32.53;22.58;;;;;;;4.97;100.00;102954.44;5241482;28;20354;-66
2022/11/12 00:10:10;;;;;;;32.60;22.83;;;;;;;4.84;100.00;102961.72;5249884;28;20029;-66
2022/11/12 00:12:42;;;;;;;29.25;21.85;;;;;;;4.88;100.00;102967.84;5243097;28;21620;-65
2022/11/12 00:15:13;;;;;;;29.10;21.83;;;;;;;4.86;100.00;102967.00;5240425;28;20025;-66
2022/11/12 00:17:45;;;;;;;28.17;21.70;;;;;;;4.82;100.00;102966.16;5247840;28;20029;-65
2022/11/12 00:20:16;;;;;;;30.58;22.17;;;;;;;4.85;100.00;102958.19;5244100;28;20017;-66
2022/11/12 00:22:48;;;;;;;32.72;22.95;;;;;;;4.88;100.00;102960.75;5245265;28;20032;-66
2022/11/12 00:25:19;;;;;;;31.73;23.08;;;;;;;4.94;100.00;102958.91;5245649;28;20040;-66
2022/11/12 00:27:50;;;;;;;29.75;22.13;;;;;;;4.93;100.00;102971.28;5245488;28;20110;-66
2022/11/12 00:30:21;;;;;;;30.33;22.08;;;;;;;4.89;100.00;102973.09;5243074;28;21547;-66
2022/11/12 00:32:53;;;;;;;29.50;22.23;;;;;;;4.81;100.00;102972.34;5247162;28;20029;-66
2022/11/12 00:35:24;;;;;;;29.80;22.65;;;;;;;4.79;100.00;102975.94;5242985;28;20029;-65
2022/11/12 00:37:56;;;;;;;33.13;23.38;;;;;;;4.84;100.00;102979.38;5242341;28;20040;-66
2022/11/12 00:40:28;;;;;;;32.10;23.92;;;;;;;4.76;100.00;102981.28;5242228;28;20032;-66
2022/11/12 00:42:59;;;;;;;29.95;22.40;;;;;;;4.86;100.00;102978.44;5244875;28;20025;-66
2022/11/12 00:45:31;;;;;;;37.22;26.00;;;;;;;4.85;100.00;102967.88;5238977;28;20032;-66
2022/11/12 00:48:02;;;;;;;30.50;23.55;;;;;;;4.72;100.00;102965.47;5247151;28;20070;-65
2022/11/12 00:50:33;;;;;;;32.35;23.13;;;;;;;4.69;100.00;102960.22;5243740;28;20025;-65
2022/11/12 00:53:05;;;;;;;34.83;23.75;;;;;;;4.78;100.00;102969.78;5247989;28;20063;-66
2022/11/12 00:55:36;;;;;;;33.92;25.55;;;;;;;4.72;100.00;102962.81;5241567;28;20095;-65
2022/11/12 00:58:07;;;;;;;31.60;23.33;;;;;;;4.84;100.00;102963.50;5241768;28;20043;-66
2022/11/12 01:00:38;;;;;;;31.67;23.00;;;;;;;4.78;100.00;102959.19;5245784;28;20036;-65
2022/11/12 01:03:10;;;;;;;31.20;23.63;;;;;;;4.71;100.00;102957.56;5223961;28;20032;-67
2022/11/12 01:05:41;;;;;;;29.45;23.23;;;;;;;4.70;100.00;102961.13;5244841;28;20028;-65
2022/11/12 01:08:12;;;;;;;31.25;24.00;;;;;;;4.74;100.00;102959.25;5245611;28;20111;-65
2022/11/12 01:10:43;;;;;;;33.72;23.92;;;;;;;4.72;100.00;102954.88;5242587;28;20029;-65
2022/11/12 01:13:15;;;;;;;27.88;22.63;;;;;;;4.69;100.00;102956.72;5248724;28;20458;-66
2022/11/12 01:15:46;;;;;;;28.80;21.98;;;;;;;4.64;100.00;102958.56;5244375;28;20090;-65
2022/11/12 01:18:17;;;;;;;35.28;23.20;;;;;;;4.63;100.00;102954.19;5243592;28;20468;-65
2022/11/12 01:20:48;;;;;;;28.63;21.67;;;;;;;4.60;100.00;102952.47;5241294;28;20112;-65
2022/11/12 01:23:20;;;;;;;32.55;24.02;;;;;;;4.64;100.00;102950.63;5246136;28;20028;-66
2022/11/12 01:25:51;;;;;;;29.88;22.60;;;;;;;4.67;100.00;102956.72;5243777;28;20032;-68
2022/11/12 01:28:22;;;;;;;29.33;22.73;;;;;;;4.56;100.00;102955.19;5246610;28;20112;-66
2022/11/12 01:30:53;;;;;;;30.08;22.88;;;;;;;4.51;100.00;102956.13;5242876;28;20025;-66
2022/11/12 01:33:25;;;;;;;29.95;22.88;;;;;;;4.49;100.00;102952.66;5244068;28;20106;-66
2022/11/12 01:35:58;;;;;;;28.75;21.80;;;;;;;4.46;100.00;102952.69;5242233;28;20045;-66
2022/11/12 01:38:33;;;;;;;27.70;22.10;;;;;;;4.49;100.00;102955.28;5243799;28;20655;-66
2022/11/12 01:41:06;;;;;;;28.70;22.05;;;;;;;4.46;100.00;102947.41;5242563;28;20250;-66
2022/11/12 01:43:37;;;;;;;29.63;23.30;;;;;;;4.44;100.00;102946.56;5242573;28;20684;-66
2022/11/12 01:46:27;;;;;;;33.35;23.10;;;;;;;4.45;100.00;102945.66;5241691;28;20036;-66
2022/11/12 01:49:03;;;;;;;28.83;21.95;;;;;;;4.40;100.00;102946.66;5243992;28;20041;-66
2022/11/12 01:51:40;;;;;;;31.38;23.58;;;;;;;4.37;100.00;102941.41;5243568;28;20033;-66
2022/11/12 01:54:15;;;;;;;29.25;22.90;;;;;;;4.35;100.00;102946.69;5236954;28;20040;-66
2022/11/12 01:56:49;;;;;;;28.63;22.25;;;;;;;4.31;100.00;102943.28;5239803;28;20227;-66
2022/11/12 01:59:31;;;;;;;30.25;23.35;;;;;;;4.27;100.00;102944.19;5245225;28;20036;-66
2022/11/12 02:02:03;;;;;;;28.55;21.63;;;;;;;4.38;100.00;102941.38;5239350;28;20028;-66
2022/11/12 02:04:37;;;;;;;28.75;23.50;;;;;;;4.28;100.00;102945.09;5245161;28;20033;-66
2022/11/12 02:07:09;;;;;;;32.00;23.58;;;;;;;4.28;100.00;102945.94;5243081;28;20028;-66
2022/11/12 02:09:40;;;;;;;28.13;22.23;;;;;;;4.27;100.00;102943.31;5244430;28;20815;-66
2022/11/12 02:13:56;;;;;;;30.95;21.77;;;;;;;4.24;100.00;102943.41;5247278;28;20035;-66
2022/11/12 02:15:03;;;;;;;27.60;21.42;;;;;;;4.25;100.00;102937.19;5247103;28;20079;-66
2022/11/12 02:17:35;;;;;;;31.00;22.50;;;;;;;4.26;100.00;102941.59;5247827;28;20440;-66
2022/11/12 02:20:10;;;;;;;30.90;22.95;;;;;;;4.21;100.00;102943.44;5245131;28;20491;-67
2022/11/12 02:22:42;;;;;;;26.63;20.25;;;;;;;4.31;100.00;102948.56;5247446;28;20029;-66
2022/11/12 02:25:19;;;;;;;29.70;21.35;;;;;;;4.20;100.00;102947.84;5240676;28;20078;-66
2022/11/12 02:27:53;;;;;;;29.55;20.88;;;;;;;4.25;100.00;102938.06;5251106;28;20029;-66
2022/11/12 02:30:37;;;;;;;28.00;21.70;;;;;;;4.15;100.00;102943.53;5245099;28;20112;-66
2022/11/12 02:33:08;;;;;;;30.27;21.75;;;;;;;4.19;100.00;102938.16;5248986;28;20033;-66
2022/11/12 02:35:40;;;;;;;29.95;22.67;;;;;;;4.09;100.00;102942.72;5241904;28;20475;-66
2022/11/12 02:38:11;;;;;;;30.95;23.33;;;;;;;4.15;100.00;102943.53;5248641;28;20499;-66
2022/11/12 02:40:42;;;;;;;31.00;22.45;;;;;;;4.09;100.00;102945.38;5247323;28;20033;-66
2022/11/12 02:43:13;;;;;;;29.85;21.27;;;;;;;4.06;100.00;102940.13;5247406;28;20040;-66
2022/11/12 02:45:45;;;;;;;28.92;21.17;;;;;;;4.12;100.00;102932.13;5244559;28;20058;-66
2022/11/12 02:48:16;;;;;;;31.48;22.48;;;;;;;4.03;100.00;102926.97;5245440;28;20037;-65
2022/11/12 02:50:47;;;;;;;27.75;21.42;;;;;;;4.00;100.00;102927.00;5245226;28;20098;-66
2022/11/12 02:53:19;;;;;;;28.67;22.48;;;;;;;4.03;100.00;102928.75;5245853;28;20040;-66
2022/11/12 02:55:50;;;;;;;29.35;22.25;;;;;;;4.01;100.00;102922.59;5243747;28;20171;-66
2022/11/12 02:58:21;;;;;;;30.95;22.75;;;;;;;3.95;100.00;102922.69;5227957;28;20025;-66
2022/11/12 03:00:53;;;;;;;27.17;19.80;;;;;;;3.93;100.00;102918.31;5243934;28;20048;-65
2022/11/12 03:03:25;;;;;;;26.80;19.27;;;;;;;3.91;100.00;102912.19;5247481;28;20067;-66
2022/11/12 03:06:00;;;;;;;26.80;19.85;;;;;;;4.03;100.00;102919.06;5248157;28;20040;-66
2022/11/12 03:08:31;;;;;;;23.15;17.13;;;;;;;3.99;100.00;102919.09;5246970;28;20037;-66
2022/11/12 03:11:11;;;;;;;22.25;16.70;;;;;;;3.99;100.00;102913.81;5243664;28;20059;-66
2022/11/12 03:13:44;;;;;;;23.80;17.63;;;;;;;4.00;100.00;102923.50;5247902;28;20116;-66
2022/11/12 03:16:15;;;;;;;24.80;17.65;;;;;;;3.95;100.00;102934.16;5240096;28;20592;-65
2022/11/12 03:18:46;;;;;;;24.60;17.30;;;;;;;3.94;100.00;102919.19;5244794;28;20056;-65
2022/11/12 03:21:18;;;;;;;29.15;19.73;;;;;;;3.97;100.00;102927.06;5247358;28;20178;-65
2022/11/12 03:23:49;;;;;;;23.42;16.63;;;;;;;3.99;100.00;102933.22;5245029;28;20036;-66
2022/11/12 03:26:20;;;;;;;23.33;17.33;;;;;;;3.95;100.00;102938.53;5250367;28;20089;-66
2022/11/12 03:28:52;;;;;;;22.35;16.20;;;;;;;3.87;100.00;102936.00;5249569;28;20057;-65
2022/11/12 03:31:24;;;;;;;23.73;16.00;;;;;;;3.86;100.00;102940.44;5247969;28;20116;-66
2022/11/12 03:33:55;;;;;;;20.90;15.52;;;;;;;3.83;100.00;102934.31;5243890;28;20036;-65
2022/11/12 03:36:26;;;;;;;22.95;14.65;;;;;;;3.97;100.00;102934.09;5244879;28;20032;-66
2022/11/12 03:38:58;;;;;;;21.83;16.20;;;;;;;3.90;100.00;102930.69;5241624;28;20942;-66
2022/11/12 03:41:29;;;;;;;23.33;15.95;;;;;;;3.83;100.00;102942.25;5244672;28;20037;-65
2022/11/12 03:44:00;;;;;;;21.80;15.60;;;;;;;3.83;100.00;102937.81;5246865;28;20080;-65
2022/11/12 03:46:32;;;;;;;19.23;14.98;;;;;;;3.76;100.00;102943.22;5245167;28;20118;-65
2022/11/12 03:49:03;;;;;;;18.48;13.93;;;;;;;3.73;100.00;102949.41;5247264;28;20037;-65
2022/11/12 03:51:34;;;;;;;19.98;14.60;;;;;;;3.70;100.00;102936.25;5249917;28;20386;-65
2022/11/12 03:54:06;;;;;;;19.67;14.13;;;;;;;3.67;100.00;102938.94;5248935;28;20056;-65
2022/11/12 03:56:37;;;;;;;19.15;13.70;;;;;;;3.78;100.00;102930.84;5247727;28;20041;-66
2022/11/12 03:59:09;;;;;;;19.92;14.18;;;;;;;3.71;100.00;102940.66;5243178;28;20090;-65
2022/11/12 04:01:40;;;;;;;22.08;14.50;;;;;;;3.67;100.00;102939.81;5244132;28;20025;-65
2022/11/12 04:04:11;;;;;;;19.10;13.55;;;;;;;3.66;100.00;102942.47;5248802;28;20387;-65
2022/11/12 04:09:32;;;;;;;19.90;13.52;;;;;;;3.58;100.00;102934.66;5250384;28;20127;-65
2022/11/12 04:13:26;;;;;;;18.10;13.82;;;;;;;3.57;100.00;102926.75;5243532;28;20033;-65
2022/11/12 04:14:55;;;;;;;18.98;13.85;;;;;;;3.60;100.00;102918.81;5249386;28;20480;-65
2022/11/12 04:23:06;;;;;;;19.00;13.30;;;;;;;3.66;100.00;102911.69;5249721;28;20270;-65
2022/11/12 04:28:28;;;;;;;20.05;13.25;;;;;;;3.55;100.00;102910.97;5244966;28;20025;-65
2022/11/12 04:30:59;;;;;;;18.02;12.82;;;;;;;3.51;100.00;102906.63;5246167;28;20136;-65
2022/11/12 04:33:31;;;;;;;18.50;13.93;;;;;;;3.48;100.00;102902.25;5245871;28;20432;-65
2022/11/12 04:36:02;;;;;;;19.52;12.95;;;;;;;3.49;100.00;102909.28;5245824;28;20483;-65
2022/11/12 04:38:33;;;;;;;17.52;12.90;;;;;;;3.47;100.00;102912.81;5245435;28;20550;-65
2022/11/12 04:46:44;;;;;;;19.40;13.15;;;;;;;3.46;100.00;102913.72;5248287;28;20033;-65
2022/11/12 04:49:16;;;;;;;18.02;12.77;;;;;;;3.42;100.00;102910.25;5242273;28;20056;-66
2022/11/12 04:52:05;;;;;;;19.10;13.10;;;;;;;3.51;100.00;102915.41;5246700;28;20025;-65
2022/11/12 04:54:37;;;;;;;19.05;13.05;;;;;;;3.64;100.00;102910.81;5246359;28;20077;-65
2022/11/12 04:57:08;;;;;;;15.98;11.73;;;;;;;3.49;100.00;102909.28;5243220;28;20120;-65
2022/11/12 04:59:39;;;;;;;17.30;12.90;;;;;;;3.58;100.00;102900.34;5246065;28;20037;-65
2022/11/12 05:02:11;;;;;;;17.25;12.98;;;;;;;3.49;100.00;102893.44;5243516;28;20033;-65
2022/11/12 05:04:43;;;;;;;16.42;12.90;;;;;;;3.44;100.00;102894.41;5234784;28;20047;-65
2022/11/12 05:07:14;;;;;;;18.13;13.02;;;;;;;3.37;100.00;102888.31;5237320;28;20037;-65
2022/11/12 05:09:46;;;;;;;16.55;12.52;;;;;;;3.35;100.00;102890.09;5245296;28;20039;-65
2022/11/12 05:12:17;;;;;;;16.65;12.23;;;;;;;3.46;100.00;102887.34;5240889;28;20029;-65
2022/11/12 05:14:48;;;;;;;16.17;12.40;;;;;;;3.31;100.00;102893.69;5237282;28;20029;-65
2022/11/12 05:17:19;;;;;;;18.45;12.77;;;;;;;3.27;100.00;102886.69;5239662;28;20128;-65
2022/11/12 05:19:51;;;;;;;19.50;12.57;;;;;;;3.36;100.00;102881.31;5239932;28;20047;-65
2022/11/12 05:22:22;;;;;;;17.90;12.45;;;;;;;3.29;100.00;102883.13;5245622;28;20048;-66
2022/11/12 05:24:53;;;;;;;18.00;10.98;;;;;;;3.30;100.00;102882.25;5245853;28;20032;-65
2022/11/12 05:27:25;;;;;;;16.13;11.77;;;;;;;3.32;100.00;102880.47;5243405;28;20036;-64
2022/11/12 05:29:56;;;;;;;17.23;12.23;;;;;;;3.33;100.00;102879.56;5244538;28;20048;-65
2022/11/12 05:32:27;;;;;;;15.02;10.98;;;;;;;3.29;100.00;102880.50;5241108;28;20115;-65
2022/11/12 05:34:59;;;;;;;20.00;12.57;;;;;;;3.27;100.00;102876.16;5241986;28;20141;-65
2022/11/12 05:37:30;;;;;;;17.00;12.38;;;;;;;3.23;100.00;102872.69;5241265;28;20490;-65
2022/11/12 05:40:01;;;;;;;15.35;11.38;;;;;;;3.22;100.00;102873.59;5245627;28;20029;-65
2022/11/12 05:42:32;;;;;;;17.70;12.73;;;;;;;3.23;100.00;102877.09;5243179;28;20040;-65
2022/11/12 05:45:04;;;;;;;16.08;11.45;;;;;;;3.18;100.00;102882.41;5225180;28;20032;-65
2022/11/12 05:47:36;;;;;;;17.98;12.52;;;;;;;3.18;100.00;102882.41;5245826;28;20025;-65
2022/11/12 05:50:07;;;;;;;17.65;12.20;;;;;;;3.17;100.00;102885.09;5246019;28;20033;-65
2022/11/12 05:52:38;;;;;;;15.30;11.77;;;;;;;3.14;100.00;102875.41;5247301;28;20032;-64
2022/11/12 05:55:10;;;;;;;16.17;11.48;;;;;;;3.14;100.00;102875.41;5209521;28;1033904;-65
2022/11/12 05:57:41;;;;;;;18.77;12.02;;;;;;;3.08;100.00;102886.06;5243551;28;20534;-65
2022/11/12 06:00:13;;;;;;;16.42;11.23;;;;;;;3.06;100.00;102877.28;5243474;28;20443;-64
2022/11/12 06:02:44;;;;;;;15.43;11.27;;;;;;;3.05;100.00;102881.69;5244987;28;20687;-65
2022/11/12 06:05:15;;;;;;;17.10;12.70;;;;;;;3.08;100.00;102875.50;5241441;28;20032;-65
2022/11/12 06:07:46;;;;;;;15.52;10.93;;;;;;;3.15;100.00;102879.81;5238150;28;20111;-65
2022/11/12 06:10:18;;;;;;;15.50;10.88;;;;;;;3.06;100.00;102878.16;5245709;28;20033;-65
2022/11/12 06:12:49;;;;;;;15.32;10.38;;;;;;;3.18;100.00;102873.63;5237819;28;20671;-65
2022/11/12 06:15:21;;;;;;;17.15;12.00;;;;;;;3.17;100.00;102877.16;5237055;28;20480;-65
2022/11/12 06:17:53;;;;;;;16.50;11.43;;;;;;;3.13;100.00;102885.09;5242793;28;20033;-65
2022/11/12 06:20:25;;;;;;;16.70;10.38;;;;;;;3.08;100.00;102878.16;5243017;28;20478;-65
2022/11/12 06:22:56;;;;;;;17.13;11.50;;;;;;;3.04;100.00;102879.09;5238536;28;20103;-65
2022/11/12 06:25:28;;;;;;;17.10;11.77;;;;;;;3.07;100.00;102879.06;5245959;28;20036;-65
2022/11/12 06:28:00;;;;;;;16.30;11.32;;;;;;;3.10;100.00;102890.41;5245629;28;20033;-65
2022/11/12 06:30:31;;;;;;;17.27;11.13;;;;;;;3.03;100.00;102893.13;5241257;28;20044;-65
2022/11/12 06:33:02;;;;;;;16.52;10.98;;;;;;;3.04;100.00;102893.13;5239988;28;20598;-65
2022/11/12 06:35:33;;;;;;;16.63;11.50;;;;;;;3.02;100.00;102892.28;5238156;28;20067;-65
2022/11/12 06:38:05;;;;;;;17.15;11.85;;;;;;;3.01;100.00;102897.56;5241107;28;20037;-65
2022/11/12 06:40:36;;;;;;;14.45;10.85;;;;;;;2.99;100.00;102888.81;5240909;28;20033;-65
2022/11/12 06:43:07;;;;;;;16.17;11.32;;;;;;;3.00;100.00;102888.78;5243274;28;20053;-65
2022/11/12 06:45:38;;;;;;;13.73;9.95;;;;;;;3.03;100.00;102880.84;5244680;28;20033;-65
2022/11/12 06:48:10;;;;;;;15.43;11.05;;;;;;;3.06;100.00;102895.75;5244211;28;20029;-65
2022/11/12 06:50:41;;;;;;;15.57;11.70;;;;;;;3.07;100.00;102892.25;5246284;28;20033;-65
2022/11/12 06:53:12;;;;;;;17.80;11.38;;;;;;;3.05;100.00;102900.16;5227563;28;20036;-66
2022/11/12 06:55:43;;;;;;;19.35;11.57;;;;;;;3.13;100.00;102900.94;5248350;28;20124;-65
2022/11/12 06:58:15;;;;;;;15.50;11.50;;;;;;;3.06;100.00;102899.25;5246201;28;20048;-65
2022/11/12 07:00:46;;;;;;;15.48;11.10;;;;;;;3.05;100.00;102907.19;5245481;28;20030;-65
2022/11/12 07:03:17;;;;;;;16.58;11.30;;;;;;;3.01;100.00;102901.09;5242254;28;20382;-64
2022/11/12 07:05:48;;;;;;;15.98;10.52;;;;;;;3.00;100.00;102901.09;5246372;28;20124;-65
2022/11/12 07:08:20;;;;;;;15.75;11.02;;;;;;;2.97;100.00;102899.34;5241866;28;20039;-65
2022/11/12 07:10:58;;;;;;;17.30;11.13;;;;;;;2.95;100.00;102901.13;5245184;28;20071;-65
2022/11/12 07:13:31;;;;;;;17.00;11.65;;;;;;;2.98;100.00;102902.91;5248082;28;20482;-65
2022/11/12 07:16:05;;;;;;;16.98;10.75;;;;;;;2.97;100.00;102906.41;5244240;28;20040;-65
2022/11/12 07:18:37;;;;;;;13.43;9.35;;;;;;;3.03;100.00;102903.69;5246667;28;20037;-64
2022/11/12 07:21:11;;;;;;;19.55;12.02;;;;;;;3.07;100.00;102894.88;5248494;28;20180;-65
2022/11/12 07:23:42;;;;;;;16.17;11.20;;;;;;;3.04;100.00;102902.81;5245343;28;20155;-64
2022/11/12 07:26:24;;;;;;;17.85;12.43;;;;;;;3.12;100.00;102898.31;5240559;28;20055;-64
2022/11/12 07:28:55;;;;;;;17.42;12.18;;;;;;;3.15;100.00;102893.00;5249169;28;20045;-64
2022/11/12 07:31:26;;;;;;;16.90;12.55;;;;;;;3.13;100.00;102902.72;5244063;28;20040;-65
2022/11/12 07:33:58;;;;;;;21.30;12.55;;;;;;;3.22;100.00;102897.31;5246069;28;20100;-64
2022/11/12 07:36:29;;;;;;;16.75;11.90;;;;;;;3.32;100.00;102906.00;5247457;28;20391;-65
2022/11/12 07:39:00;;;;;;;16.98;12.25;;;;;;;3.32;100.00;102904.22;5241640;28;20159;-65
2022/11/12 07:41:32;;;;;;;19.75;12.57;;;;;;;3.36;100.00;102910.34;5245948;28;20030;-65
2022/11/12 07:44:03;;;;;;;19.55;13.02;;;;;;;3.36;100.00;102917.34;5246535;28;20032;-65
2022/11/12 07:46:34;;;;;;;21.27;13.35;;;;;;;3.47;100.00;102910.16;5241377;28;20120;-65
2022/11/12 07:49:06;;;;;;;19.48;12.80;;;;;;;3.42;100.00;102917.28;5243434;28;20029;-65
2022/11/12 07:51:37;;;;;;;22.27;13.13;;;;;;;3.51;100.00;102917.19;5246285;28;20041;-65
2022/11/12 07:54:08;;;;;;;21.42;12.90;;;;;;;3.59;100.00;102917.94;5244906;28;20036;-65
2022/11/12 07:56:40;;;;;;;20.38;12.65;;;;;;;3.57;100.00;102917.09;5239766;28;20183;-65
2022/11/12 07:59:11;;;;;;;17.65;12.00;;;;;;;3.56;100.00;102915.34;5241184;28;20058;-65
2022/11/12 08:01:43;;;;;;;18.73;12.23;;;;;;;3.64;100.00;102924.00;5243620;28;20109;-65
2022/11/12 08:04:15;;;;;;;17.85;12.07;;;;;;;3.73;100.00;102923.88;5248820;28;20029;-65
2022/11/12 08:06:48;;;;;;;16.35;12.27;;;;;;;3.76;100.00;102924.72;5255302;28;20031;-65
2022/11/12 08:09:19;;;;;;;18.45;13.32;;;;;;;3.72;100.00;102930.06;5252045;28;20135;-65
2022/11/12 08:11:50;;;;;;;17.50;11.95;;;;;;;3.77;100.00;102929.13;5252408;28;20025;-65
2022/11/12 08:14:21;;;;;;;18.80;12.77;;;;;;;3.75;100.00;102925.66;5235008;28;20367;-65
2022/11/12 08:16:53;;;;;;;17.10;12.20;;;;;;;3.83;100.00;102931.69;5247306;28;20356;-65
2022/11/12 08:19:24;;;;;;;15.68;12.23;;;;;;;3.89;100.00;102931.56;5245341;28;20028;-65
2022/11/12 08:21:56;;;;;;;16.50;12.25;;;;;;;3.90;100.00;102936.84;5243089;28;20479;-65
2022/11/12 08:24:27;;;;;;;17.83;12.65;;;;;;;3.95;100.00;102942.06;5243404;28;20025;-65
2022/11/12 08:26:58;;;;;;;16.60;11.93;;;;;;;4.05;100.00;102943.66;5241609;28;20550;-65
2022/11/12 08:29:29;;;;;;;17.70;12.30;;;;;;;4.04;100.00;102939.28;5244188;28;20044;-65
2022/11/12 08:32:01;;;;;;;17.90;13.18;;;;;;;4.01;100.00;102941.97;5244087;28;20033;-65
2022/11/12 08:34:32;;;;;;;16.88;12.30;;;;;;;4.07;100.00;102943.66;5243334;28;20120;-65
2022/11/12 08:37:03;;;;;;;17.33;12.73;;;;;;;4.09;100.00;102936.56;5244434;28;20037;-65
2022/11/12 08:39:34;;;;;;;17.23;12.30;;;;;;;4.34;100.00;102939.69;5241107;28;20033;-65
2022/11/12 08:42:06;;;;;;;24.40;14.32;;;;;;;4.31;100.00;102937.97;5241336;28;20029;-65
2022/11/12 08:44:37;;;;;;;20.67;13.02;;;;;;;4.34;100.00;102939.69;5242955;28;20116;-65
2022/11/12 08:47:08;;;;;;;21.33;14.80;;;;;;;4.39;100.00;102939.59;5242598;28;20057;-65
2022/11/12 08:49:39;;;;;;;17.88;14.18;;;;;;;4.48;100.00;102945.59;5238974;28;20066;-65
2022/11/12 08:52:11;;;;;;;21.05;14.73;;;;;;;4.53;100.00;102944.69;5243195;28;20068;-65
2022/11/12 08:54:42;;;;;;;18.77;14.38;;;;;;;4.62;100.00;102944.50;5242832;28;20048;-65
2022/11/12 08:57:13;;;;;;;18.02;13.77;;;;;;;4.70;100.00;102945.25;5241613;28;20031;-65
2022/11/12 08:59:44;;;;;;;20.27;14.35;;;;;;;4.68;100.00;102947.91;5240589;28;20182;-65
2022/11/12 09:02:16;;;;;;;20.42;14.93;;;;;;;4.79;100.00;102939.75;5238119;28;20048;-65
2022/11/12 09:04:47;;;;;;;19.00;14.57;;;;;;;4.79;100.00;102934.47;5243893;28;20039;-64
2022/11/12 09:07:18;;;;;;;19.05;14.07;;;;;;;4.87;100.00;102935.22;5245392;28;20040;-65
2022/11/12 09:09:49;;;;;;;21.55;14.43;;;;;;;4.90;100.00;102939.56;5248486;28;20124;-65
2022/11/12 09:12:21;;;;;;;19.75;14.45;;;;;;;5.01;100.00;102934.09;5250002;28;20029;-65
2022/11/12 09:14:52;;;;;;;22.65;15.35;;;;;;;5.04;100.00;102942.84;5252349;28;20055;-65
2022/11/12 09:17:23;;;;;;;20.20;14.80;;;;;;;5.16;100.00;102948.78;5246033;28;20036;-65
2022/11/12 09:19:55;;;;;;;21.00;15.38;;;;;;;5.22;100.00;102944.25;5246416;28;20041;-65
2022/11/12 09:22:26;;;;;;;22.75;15.35;;;;;;;5.37;100.00;102940.41;5237774;28;20028;-65
2022/11/12 09:24:57;;;;;;;21.10;15.60;;;;;;;5.29;100.00;102947.63;5244163;28;20034;-65
2022/11/12 09:27:28;;;;;;;23.75;17.75;;;;;;;5.54;100.00;102941.81;5250589;28;20163;-65
2022/11/12 09:30:00;;;;;;;23.17;16.75;;;;;;;5.68;100.00;102943.25;5250586;28;20033;-65
2022/11/12 09:32:32;;;;;;;21.58;16.15;;;;;;;5.59;100.00;102938.16;5248857;28;20159;-65
2022/11/12 09:35:03;;;;;;;22.73;16.20;;;;;;;5.66;100.00;102944.22;5251069;28;20029;-65
2022/11/12 09:37:38;;;;;;;21.85;15.63;;;;;;;5.66;100.00;102945.06;5243959;28;20177;-65
2022/11/12 09:40:17;;;;;;;19.58;14.73;;;;;;;5.83;100.00;102941.16;5238896;28;20057;-65
2022/11/12 09:42:54;;;;;;;19.92;15.38;;;;;;;5.93;100.00;102940.06;5240305;28;20029;-64
2022/11/12 09:45:30;;;;;;;21.73;15.82;;;;;;;5.86;100.00;102935.81;5243959;28;20044;-65
2022/11/12 09:48:07;;;;;;;22.33;15.82;;;;;;;5.86;100.00;102939.31;5237814;28;20024;-65
2022/11/12 09:50:47;;;;;;;22.77;15.80;;;;;;;6.05;100.00;102945.09;5245065;28;20086;-65
2022/11/12 09:53:30;;;;;;;18.85;16.00;;;;;;;6.19;100.00;102946.53;5246593;28;20108;-65
2022/11/12 09:56:06;;;;;;;19.60;14.75;;;;;;;6.35;100.00;102944.38;5245869;28;20071;-65
2022/11/12 09:58:37;;;;;;;18.13;14.30;;;;;;;6.51;100.00;102945.75;5232914;28;20063;-65
2022/11/12 10:01:16;;;;;;;17.88;13.88;;;;;;;6.48;100.00;102952.00;5242633;28;20073;-65
2022/11/12 10:04:09;;;;;;;18.90;14.05;;;;;;;6.47;100.00;102938.78;5248502;28;20056;-66
2022/11/12 10:07:08;;;;;;;19.98;14.50;;;;;;;6.47;100.00;102950.25;5240421;28;20029;-65
2022/11/12 10:10:03;;;;;;;18.65;14.02;;;;;;;6.59;100.00;102941.09;5246101;28;20032;-65
2022/11/12 10:12:34;;;;;;;17.23;13.40;;;;;;;6.71;100.00;102924.00;5243877;28;20095;-65
2022/11/12 10:18:42;;;;;;;19.63;13.10;;;;;;;6.89;100.00;102920.00;5249046;28;20041;-65
2022/11/12 10:21:32;;;;;;;16.38;12.10;;;;;;;7.06;100.00;102927.47;5241865;28;20041;-66
2022/11/12 10:24:08;;;;;;;18.05;12.32;;;;;;;7.07;100.00;102923.91;5249438;28;20538;-65
2022/11/12 10:26:40;;;;;;;18.63;13.18;;;;;;;7.29;100.00;102918.84;5254395;28;20036;-66
2022/11/12 10:29:38;;;;;;;18.00;11.75;;;;;;;7.16;100.00;102922.78;5254264;28;20028;-66
2022/11/12 10:32:14;;;;;;;16.08;12.40;;;;;;;7.28;100.00;102917.09;5252642;28;20029;-66
2022/11/12 10:34:45;;;;;;;18.33;12.38;;;;;;;7.49;100.00;102922.69;5250082;28;20033;-66
2022/11/12 10:37:26;;;;;;;17.35;11.45;;;;;;;7.54;100.00;102929.63;5245644;28;20044;-66
2022/11/12 10:39:57;;;;;;;15.88;12.30;;;;;;;7.63;100.00;102921.38;5250094;28;20079;-65
2022/11/12 10:42:28;;;;;;;16.10;11.68;;;;;;;7.57;100.00;102918.88;5251972;28;20120;-66
2022/11/12 10:45:19;;;;;;;15.82;11.18;;;;;;;7.68;100.00;102917.69;5251137;28;20059;-66
2022/11/12 10:47:51;;;;;;;13.18;11.23;;;;;;;7.74;100.00;102914.84;5232860;28;20102;-66
2022/11/12 10:50:41;;;;;;;15.63;11.80;;;;;;;7.88;100.00;102907.31;5254429;28;20040;-67
2022/11/12 10:53:13;;;;;;;14.13;10.93;;;;;;;7.99;100.00;102906.97;5255885;28;20032;-66
2022/11/12 10:55:55;;;;;;;15.00;10.93;;;;;;;8.02;100.00;102913.06;5251296;28;20056;-67
2022/11/12 10:58:26;;;;;;;14.13;10.82;;;;;;;8.21;100.00;102909.78;5253399;28;20029;-67
2022/11/12 11:01:11;;;;;;;16.25;10.90;;;;;;;8.21;100.00;102905.34;5253859;28;20685;-66
2022/11/12 11:03:52;;;;;;;13.60;11.00;;;;;;;8.33;100.00;102901.38;5254622;28;20033;-66
2022/11/12 11:06:26;;;;;;;15.23;10.98;;;;;;;8.39;100.00;102893.19;5252515;28;20378;-66
2022/11/12 11:09:12;;;;;;;16.85;11.63;;;;;;;8.47;100.00;102884.13;5251108;28;20033;-66
2022/11/12 11:11:52;;;;;;;14.27;10.65;;;;;;;8.61;100.00;102893.38;5254454;28;20119;-66
2022/11/12 11:14:30;;;;;;;14.52;10.60;;;;;;;8.69;100.00;102898.41;5256267;28;20025;-67
2022/11/12 11:17:08;;;;;;;14.80;11.23;;;;;;;8.61;100.00;102897.78;5249856;28;20040;-67
2022/11/12 11:19:41;;;;;;;13.60;10.13;;;;;;;8.86;100.00;102899.59;5251369;28;20041;-67
2022/11/12 11:22:40;;;;;;;15.98;10.82;;;;;;;8.79;100.00;102897.16;5252973;28;20041;-66
2022/11/12 11:25:27;;;;;;;14.35;10.18;;;;;;;8.92;100.00;102894.91;5254030;28;20087;-66
2022/11/12 11:28:16;;;;;;;15.23;10.48;;;;;;;8.92;100.00;102888.75;5252816;28;20434;-67
2022/11/12 11:31:02;;;;;;;13.32;10.10;;;;;;;8.96;100.00;102885.03;5253569;28;20061;-66
2022/11/12 11:33:54;;;;;;;16.42;9.95;;;;;;;8.99;100.00;102884.91;5242253;28;20045;-67
2022/11/12 11:36:36;;;;;;;12.27;9.52;;;;;;;9.08;100.00;102886.38;5243133;28;20048;-66
2022/11/12 11:39:33;;;;;;;12.68;8.60;;;;;;;9.29;100.00;102887.34;5243564;28;20033;-67
2022/11/12 11:42:13;;;;;;;12.93;9.68;;;;;;;9.20;100.00;102881.47;5249290;28;20474;-67
2022/11/12 11:45:00;;;;;;;13.95;7.85;;;;;;;9.56;100.00;102877.41;5254363;28;20039;-67
2022/11/12 11:47:54;;;;;;;10.70;8.40;;;;;;;9.34;100.00;102872.94;5247840;28;20033;-67
2022/11/12 11:50:30;;;;;;;11.15;8.73;;;;;;;9.50;100.00;102864.34;5252302;28;20128;-67
2022/11/12 11:53:17;;;;;;;10.07;7.28;;;;;;;9.46;100.00;102860.06;5251040;28;20110;-67
2022/11/12 11:55:54;;;;;;;9.35;7.20;;;;;;;9.61;100.00;102862.97;5254864;28;20052;-67
2022/11/12 11:59:22;;;;;;;8.65;6.35;;;;;;;9.63;100.00;102860.25;5249244;28;20039;-67